createdAt,value
2024-02-23T00:00:33.825Z,0.43
2024-02-23T00:03:00.258Z,1.17
2024-02-23T00:05:26.753Z,0.57
2024-02-23T00:07:53.492Z,0.95
2024-02-23T00:10:20.005Z,0.80
2024-02-23T00:12:48.621Z,0.40
2024-02-23T00:17:41.712Z,0.68
2024-02-23T00:20:12.135Z,1.27
2024-02-23T00:22:39.318Z,0.85
2024-02-23T00:25:06.867Z,0.50
2024-02-23T00:27:33.345Z,0.57
2024-02-23T00:30:00.082Z,0.68
2024-02-23T00:32:26.726Z,1.65
2024-02-23T00:34:53.232Z,1.05
2024-02-23T00:37:19.689Z,1.00
2024-02-23T00:39:46.301Z,1.10
2024-02-23T00:42:12.740Z,1.33
2024-02-23T00:44:39.366Z,1.00
2024-02-23T00:47:06.169Z,0.73
2024-02-23T00:49:32.686Z,1.00
2024-02-23T00:51:59.106Z,1.35
2024-02-23T00:54:25.577Z,0.75
2024-02-23T00:56:53.610Z,0.73
2024-02-23T00:59:22.294Z,0.50
2024-02-23T01:01:49.097Z,1.75
2024-02-23T01:04:15.755Z,1.17
2024-02-23T01:06:42.376Z,1.70
2024-02-23T01:09:09.043Z,0.63
2024-02-23T01:11:36.760Z,0.65
2024-02-23T01:14:03.364Z,1.02
2024-02-23T01:16:30.082Z,0.65
2024-02-23T01:18:56.783Z,0.90
2024-02-23T01:21:23.208Z,0.55
2024-02-23T01:23:49.714Z,0.30
2024-02-23T01:26:16.375Z,0.73
2024-02-23T01:28:42.849Z,0.70
2024-02-23T01:31:11.905Z,0.80
2024-02-23T01:33:40.008Z,0.55
2024-02-23T01:36:07.257Z,0.80
2024-02-23T01:38:34.015Z,1.27
2024-02-23T01:41:01.314Z,0.63
2024-02-23T01:43:28.027Z,1.00
2024-02-23T01:45:55.172Z,1.13
2024-02-23T01:48:22.613Z,0.98
2024-02-23T01:50:49.246Z,1.13
2024-02-23T01:53:16.669Z,0.52
2024-02-23T01:55:43.794Z,0.73
2024-02-23T01:58:10.406Z,0.52
2024-02-23T02:00:37.831Z,1.38
2024-02-23T02:03:08.874Z,0.98
2024-02-23T02:05:38.674Z,0.82
2024-02-23T02:08:05.929Z,1.00
2024-02-23T02:10:32.893Z,1.13
2024-02-23T02:13:06.654Z,1.42
2024-02-23T02:15:33.261Z,1.27
2024-02-23T02:17:59.872Z,0.98
2024-02-23T02:20:29.875Z,0.80
2024-02-23T02:22:56.593Z,0.93
2024-02-23T02:25:23.459Z,1.25
2024-02-23T02:27:50.080Z,1.50
2024-02-23T02:30:16.650Z,0.80
2024-02-23T02:32:43.552Z,1.17
2024-02-23T02:35:13.552Z,0.70
2024-02-23T02:37:40.703Z,0.52
2024-02-23T02:40:07.804Z,0.80
2024-02-23T02:42:35.109Z,0.88
2024-02-23T02:45:02.019Z,0.93
2024-02-23T02:47:29.027Z,0.95
2024-02-23T02:49:55.632Z,0.52
2024-02-23T02:52:24.188Z,0.60
2024-02-23T02:57:17.662Z,1.35
2024-02-23T02:59:45.782Z,1.33
2024-02-23T03:02:12.382Z,0.82
2024-02-23T03:04:38.811Z,1.10
2024-02-23T03:07:05.973Z,0.82
2024-02-23T03:09:32.598Z,1.25
2024-02-23T03:11:59.241Z,0.40
2024-02-23T03:14:27.112Z,1.35
2024-02-23T03:16:53.822Z,1.02
2024-02-23T03:19:23.602Z,1.08
2024-02-23T03:21:52.979Z,1.42
2024-02-23T03:24:19.446Z,1.33
2024-02-23T03:26:46.192Z,1.00
2024-02-23T03:29:12.900Z,0.88
2024-02-23T03:31:39.539Z,0.70
2024-02-23T03:34:06.244Z,1.00
2024-02-23T03:36:32.702Z,1.00
2024-02-23T03:38:59.318Z,1.48
2024-02-23T03:41:26.111Z,1.45
2024-02-23T03:43:52.898Z,1.10
2024-02-23T03:46:20.913Z,1.33
2024-02-23T03:48:47.583Z,0.57
2024-02-23T03:51:14.274Z,1.10
2024-02-23T03:53:40.792Z,0.93
2024-02-23T03:56:07.436Z,0.68
2024-02-23T03:58:33.936Z,0.98
2024-02-23T04:01:00.463Z,0.73
2024-02-23T04:03:26.993Z,1.20
2024-02-23T04:05:53.470Z,1.23
2024-02-23T04:08:20.113Z,0.63
2024-02-23T04:10:46.939Z,1.00
2024-02-23T04:13:15.060Z,0.98
2024-02-23T04:15:41.632Z,0.30
2024-02-23T04:18:08.121Z,1.38
2024-02-23T04:20:35.155Z,0.85
2024-02-23T04:23:02.019Z,1.30
2024-02-23T04:25:28.690Z,1.25
2024-02-23T04:27:55.948Z,0.82
2024-02-23T04:30:22.662Z,0.85
2024-02-23T04:32:49.730Z,1.15
2024-02-23T04:35:16.742Z,1.33
2024-02-23T04:37:46.484Z,0.63
2024-02-23T04:40:13.074Z,0.63
2024-02-23T04:42:40.307Z,1.35
2024-02-23T04:45:08.455Z,1.90
2024-02-23T04:47:34.988Z,0.95
2024-02-23T04:50:01.722Z,0.82
2024-02-23T04:52:28.171Z,1.02
2024-02-23T04:54:54.582Z,0.82
2024-02-23T04:57:21.244Z,1.38
2024-02-23T04:59:47.748Z,1.17
2024-02-23T05:02:14.657Z,1.23
2024-02-23T05:04:41.321Z,0.82
2024-02-23T05:07:07.996Z,0.85
2024-02-23T05:09:36.173Z,0.75
2024-02-23T05:12:02.803Z,1.90
2024-02-23T05:14:29.521Z,0.95
2024-02-23T05:16:56.125Z,1.60
2024-02-23T05:19:28.823Z,0.80
2024-02-23T05:21:55.490Z,0.75
2024-02-23T05:24:24.528Z,0.50
2024-02-23T05:26:51.046Z,1.52
2024-02-23T05:29:19.420Z,1.58
2024-02-23T05:31:54.055Z,1.13
2024-02-23T05:34:21.259Z,1.20
2024-02-23T05:36:48.908Z,1.40
2024-02-23T05:39:18.818Z,1.55
2024-02-23T05:41:45.580Z,1.00
2024-02-23T05:44:14.428Z,1.08
2024-02-23T05:46:41.065Z,0.77
2024-02-23T05:49:07.671Z,1.52
2024-02-23T05:51:34.927Z,0.80
2024-02-23T05:54:01.403Z,1.58
2024-02-23T05:56:27.976Z,1.73
2024-02-23T05:58:55.442Z,2.15
2024-02-23T06:01:22.163Z,1.33
2024-02-23T06:03:48.675Z,1.08
2024-02-23T06:06:15.441Z,0.70
2024-02-23T06:08:45.338Z,1.30
2024-02-23T06:11:12.032Z,1.42
2024-02-23T06:13:39.293Z,0.52
2024-02-23T06:16:10.809Z,2.33
2024-02-23T06:18:37.708Z,1.42
2024-02-23T06:21:06.453Z,1.23
2024-02-23T06:23:32.906Z,1.30
2024-02-23T06:25:59.380Z,1.17
2024-02-23T06:28:25.853Z,1.00
2024-02-23T06:30:52.282Z,1.13
2024-02-23T06:33:19.005Z,0.90
2024-02-23T06:35:45.812Z,1.17
2024-02-23T06:38:12.728Z,0.75
2024-02-23T06:40:46.242Z,0.85
2024-02-23T06:43:21.232Z,0.32
2024-02-23T06:45:49.551Z,0.80
2024-02-23T06:48:16.179Z,0.95
2024-02-23T06:50:42.903Z,0.75
2024-02-23T06:53:09.511Z,1.20
2024-02-23T06:55:37.046Z,0.93
2024-02-23T06:58:06.331Z,0.73
2024-02-23T07:00:33.026Z,1.65
2024-02-23T07:03:00.411Z,1.83
2024-02-23T07:05:27.142Z,0.80
2024-02-23T07:07:53.942Z,0.93
2024-02-23T07:10:21.408Z,1.30
2024-02-23T07:12:47.935Z,0.93
2024-02-23T07:15:15.244Z,0.98
2024-02-23T07:17:42.035Z,1.20
2024-02-23T07:20:09.269Z,0.60
2024-02-23T07:22:35.786Z,1.40
2024-02-23T07:25:04.882Z,1.23
2024-02-23T07:27:32.008Z,1.17
2024-02-23T07:29:58.775Z,0.45
2024-02-23T07:32:25.635Z,1.45
2024-02-23T07:34:52.630Z,1.45
2024-02-23T07:37:19.422Z,0.95
2024-02-23T07:39:45.838Z,0.63
2024-02-23T07:42:14.357Z,1.00
2024-02-23T07:44:41.321Z,1.67
2024-02-23T07:47:07.994Z,1.77
2024-02-23T07:49:34.664Z,1.60
2024-02-23T07:52:01.215Z,1.98
2024-02-23T07:54:27.743Z,1.33
2024-02-23T07:56:54.390Z,0.70
2024-02-23T07:59:20.949Z,0.70
2024-02-23T08:01:48.381Z,1.23
2024-02-23T08:04:14.961Z,1.17
2024-02-23T08:06:43.264Z,0.90
2024-02-23T08:09:10.473Z,1.13
2024-02-23T08:11:37.472Z,1.40
2024-02-23T08:14:04.363Z,1.27
2024-02-23T08:16:30.964Z,1.17
2024-02-23T08:18:57.590Z,0.65
2024-02-23T08:21:24.008Z,1.23
2024-02-23T08:23:50.542Z,0.65
2024-02-23T08:26:17.338Z,0.80
2024-02-23T08:28:44.346Z,0.90
2024-02-23T08:31:11.001Z,0.55
2024-02-23T08:33:37.635Z,0.75
2024-02-23T08:36:06.964Z,1.10
2024-02-23T08:38:34.186Z,0.85
2024-02-23T08:41:00.920Z,1.40
2024-02-23T08:43:30.481Z,0.80
2024-02-23T08:46:00.045Z,1.25
2024-02-23T08:48:29.259Z,1.15
2024-02-23T08:50:56.427Z,1.25
2024-02-23T08:53:22.995Z,1.05
2024-02-23T08:55:49.771Z,0.82
2024-02-23T08:58:17.318Z,0.60
2024-02-23T09:00:43.857Z,0.95
2024-02-23T09:03:10.434Z,1.60
2024-02-23T09:05:37.183Z,0.55
2024-02-23T09:08:03.963Z,0.70
2024-02-23T09:10:30.538Z,0.82
2024-02-23T09:12:56.981Z,0.73
2024-02-23T09:15:23.557Z,1.10
2024-02-23T09:17:50.299Z,0.73
2024-02-23T09:20:17.155Z,0.50
2024-02-23T09:22:43.896Z,0.90
2024-02-23T09:25:10.436Z,0.98
2024-02-23T09:27:41.598Z,1.20
2024-02-23T09:30:08.664Z,0.75
2024-02-23T09:32:35.189Z,0.50
2024-02-23T09:35:01.751Z,0.90
2024-02-23T09:37:28.260Z,0.93
2024-02-23T09:39:54.641Z,0.80
2024-02-23T09:42:28.575Z,1.35
2024-02-23T09:45:01.417Z,1.05
2024-02-23T09:47:29.580Z,1.40
2024-02-23T09:49:57.048Z,1.50
2024-02-23T09:52:24.191Z,1.27
2024-02-23T09:54:50.748Z,0.80
2024-02-23T09:57:19.013Z,1.25
2024-02-23T09:59:45.872Z,0.75
2024-02-23T10:02:16.723Z,0.70
2024-02-23T10:04:44.978Z,0.85
2024-02-23T10:07:11.827Z,0.73
2024-02-23T10:09:38.383Z,1.10
2024-02-23T10:12:05.604Z,1.13
2024-02-23T10:14:32.316Z,1.08
2024-02-23T10:17:00.021Z,0.80
2024-02-23T10:19:30.185Z,0.90
2024-02-23T10:21:57.739Z,1.13
2024-02-23T10:24:25.680Z,0.57
2024-02-23T10:26:52.818Z,0.63
2024-02-23T10:29:21.163Z,1.08
2024-02-23T10:31:51.994Z,0.65
2024-02-23T10:34:20.686Z,1.00
2024-02-23T10:36:48.999Z,0.70
2024-02-23T10:39:20.557Z,0.75
2024-02-23T10:42:01.471Z,0.88
2024-02-23T10:44:29.748Z,1.20
2024-02-23T10:46:57.857Z,1.15
2024-02-23T10:49:27.848Z,1.65
2024-02-23T10:51:55.289Z,1.08
2024-02-23T10:54:22.885Z,1.52
2024-02-23T10:56:52.351Z,1.38
2024-02-23T10:59:20.095Z,0.80
2024-02-23T11:01:51.028Z,0.60
2024-02-23T11:04:18.595Z,0.73
2024-02-23T11:06:51.573Z,0.60
2024-02-23T11:09:22.418Z,1.08
2024-02-23T11:11:55.453Z,0.70
2024-02-23T11:14:37.431Z,1.38
2024-02-23T11:17:05.145Z,0.70
2024-02-23T11:19:37.127Z,1.10
2024-02-23T11:22:05.078Z,0.50
2024-02-23T11:24:32.857Z,0.90
2024-02-23T11:27:01.557Z,1.17
2024-02-23T11:29:30.231Z,1.52
2024-02-23T11:32:01.405Z,1.00
2024-02-23T11:34:28.899Z,0.88
2024-02-23T11:36:55.492Z,0.65
2024-02-23T11:39:23.287Z,1.08
2024-02-23T11:41:50.921Z,0.52
2024-02-23T11:44:18.594Z,0.93
2024-02-23T11:46:46.326Z,0.93
2024-02-23T11:49:13.057Z,1.30
2024-02-23T11:51:39.754Z,1.30
2024-02-23T11:54:07.203Z,0.90
2024-02-23T11:56:33.746Z,1.02
2024-02-23T11:59:00.494Z,1.17
2024-02-23T12:01:30.424Z,1.33
2024-02-23T12:03:56.882Z,1.35
2024-02-23T12:06:23.530Z,1.10
2024-02-23T12:08:50.642Z,0.77
2024-02-23T12:11:17.516Z,1.25
2024-02-23T12:13:44.038Z,1.33
2024-02-23T12:16:10.899Z,1.25
2024-02-23T12:18:37.847Z,1.55
2024-02-23T12:21:08.605Z,1.13
2024-02-23T12:23:42.669Z,1.35
2024-02-23T12:26:09.659Z,1.27
2024-02-23T12:28:36.665Z,0.63
2024-02-23T12:31:04.720Z,1.02
2024-02-23T12:33:37.086Z,0.93
2024-02-23T12:36:05.404Z,1.33
2024-02-23T12:38:32.404Z,0.80
2024-02-23T12:41:00.745Z,1.00
2024-02-23T12:43:27.961Z,1.05
2024-02-23T12:45:58.284Z,1.10
2024-02-23T12:48:25.019Z,1.15
2024-02-23T12:50:52.841Z,0.63
2024-02-23T12:53:42.127Z,0.80
2024-02-23T12:56:11.046Z,1.02
2024-02-23T12:58:38.527Z,2.28
2024-02-23T13:01:06.885Z,0.82
2024-02-23T13:03:34.586Z,0.93
2024-02-23T13:06:01.306Z,0.95
2024-02-23T13:08:28.424Z,0.93
2024-02-23T13:10:55.774Z,1.50
2024-02-23T13:13:23.232Z,0.93
2024-02-23T13:15:52.603Z,0.60
2024-02-23T13:18:20.536Z,1.08
2024-02-23T13:20:47.796Z,0.70
2024-02-23T13:23:16.655Z,0.98
2024-02-23T13:25:44.446Z,0.73
2024-02-23T13:28:13.578Z,1.55
2024-02-23T13:30:40.499Z,0.77
2024-02-23T13:33:09.120Z,0.90
2024-02-23T13:35:35.993Z,0.93
2024-02-23T13:38:04.486Z,0.80
2024-02-23T13:40:32.677Z,1.00
2024-02-23T13:42:59.480Z,1.23
2024-02-23T13:45:26.391Z,0.60
2024-02-23T13:48:04.155Z,0.50
2024-02-23T13:50:31.384Z,0.88
2024-02-23T13:52:58.721Z,1.08
2024-02-23T13:55:25.300Z,1.02
2024-02-23T13:57:51.848Z,1.45
2024-02-23T14:00:20.548Z,0.80
2024-02-23T14:02:49.086Z,1.60
2024-02-23T14:05:16.985Z,1.02
2024-02-23T14:07:43.963Z,1.00
2024-02-23T14:10:10.926Z,1.48
2024-02-23T14:12:37.637Z,1.85
2024-02-23T14:15:06.001Z,1.55
2024-02-23T14:19:59.237Z,1.75
2024-02-23T14:22:25.887Z,0.80
2024-02-23T14:24:52.546Z,0.93
2024-02-23T14:27:19.370Z,1.75
2024-02-23T14:29:47.649Z,1.27
2024-02-23T14:32:17.981Z,1.08
2024-02-23T14:34:45.137Z,0.63
2024-02-23T14:37:11.634Z,0.82
2024-02-23T14:39:38.054Z,0.75
2024-02-23T14:42:04.952Z,0.70
2024-02-23T14:44:31.565Z,1.13
2024-02-23T14:46:58.205Z,0.50
2024-02-23T14:49:25.183Z,0.60
2024-02-23T14:51:51.886Z,0.73
2024-02-23T14:54:25.647Z,0.70
2024-02-23T14:56:52.239Z,1.10
2024-02-23T14:59:18.892Z,1.50
2024-02-23T15:01:45.438Z,0.68
2024-02-23T15:04:12.684Z,0.82
2024-02-23T15:06:39.937Z,0.57
2024-02-23T15:09:06.747Z,1.30
2024-02-23T15:11:33.695Z,0.50
2024-02-23T15:14:02.041Z,0.52
2024-02-23T15:18:55.699Z,0.32
2024-02-23T15:21:22.209Z,1.17
2024-02-23T15:23:48.828Z,0.60
2024-02-23T15:26:15.624Z,0.32
2024-02-23T15:28:42.167Z,0.80
2024-02-23T15:31:09.641Z,0.80
2024-02-23T15:33:39.815Z,1.10
2024-02-23T15:36:09.288Z,1.00
2024-02-23T15:38:37.298Z,1.05
2024-02-23T15:41:05.152Z,1.02
2024-02-23T15:43:31.969Z,1.33
2024-02-23T15:45:58.404Z,1.25
2024-02-23T15:48:26.603Z,0.90
2024-02-23T15:56:06.405Z,1.02
2024-02-23T15:58:32.859Z,1.25
2024-02-23T16:00:59.531Z,1.10
2024-02-23T16:03:26.166Z,1.20
2024-02-23T16:05:52.935Z,1.00
2024-02-23T16:08:38.667Z,1.00
2024-02-23T16:11:05.238Z,1.13
2024-02-23T16:13:31.999Z,0.70
2024-02-23T16:15:58.889Z,1.00
2024-02-23T16:18:25.393Z,0.80
2024-02-23T16:20:52.102Z,1.70
2024-02-23T16:23:18.551Z,0.77
2024-02-23T16:25:45.215Z,0.77
2024-02-23T16:28:11.747Z,0.95
2024-02-23T16:30:39.582Z,0.65
2024-02-23T16:33:05.993Z,0.93
2024-02-23T16:35:39.195Z,1.33
2024-02-23T16:38:05.869Z,0.70
2024-02-23T16:40:32.699Z,0.95
2024-02-23T16:43:00.428Z,1.30
2024-02-23T16:45:28.587Z,1.48
2024-02-23T16:47:55.981Z,0.82
2024-02-23T16:50:22.783Z,1.30
2024-02-23T16:52:49.963Z,0.85
2024-02-23T16:55:19.656Z,0.80
2024-02-23T16:57:46.300Z,1.27
2024-02-23T17:00:13.351Z,0.73
2024-02-23T17:02:40.065Z,1.13
2024-02-23T17:05:06.889Z,1.25
2024-02-23T17:07:33.658Z,1.42
2024-02-23T17:10:00.252Z,1.50
2024-02-23T17:12:28.684Z,1.20
2024-02-23T17:17:22.062Z,1.42
2024-02-23T17:19:49.014Z,1.20
2024-02-23T17:22:15.650Z,0.95
2024-02-23T17:24:42.236Z,1.30
2024-02-23T17:27:10.163Z,1.30
2024-02-23T17:29:36.863Z,1.50
2024-02-23T17:32:03.443Z,0.75
2024-02-23T17:34:30.226Z,1.30
2024-02-23T17:36:56.797Z,1.30
2024-02-23T17:39:24.537Z,1.20
2024-02-23T17:41:51.095Z,1.35
2024-02-23T17:44:18.912Z,1.40
2024-02-23T17:46:49.334Z,1.85
2024-02-23T17:49:16.873Z,1.88
2024-02-23T17:51:43.452Z,2.45
2024-02-23T17:54:10.152Z,1.30
2024-02-23T17:56:36.845Z,0.98
2024-02-23T17:59:04.662Z,2.20
2024-02-23T18:01:32.342Z,1.30
2024-02-23T18:04:07.706Z,1.27
2024-02-23T18:06:35.403Z,1.30
2024-02-23T18:09:02.279Z,0.90
2024-02-23T18:11:29.198Z,1.35
2024-02-23T18:13:56.735Z,1.45
2024-02-23T18:16:23.461Z,1.25
2024-02-23T18:18:52.051Z,1.63
2024-02-23T18:21:18.627Z,1.30
2024-02-23T18:23:45.509Z,1.65
2024-02-23T18:26:15.730Z,1.45
2024-02-23T18:28:42.621Z,1.80
2024-02-23T18:31:09.633Z,1.25
2024-02-23T18:33:36.519Z,1.42
2024-02-23T18:36:03.587Z,1.38
2024-02-23T18:38:30.036Z,1.40
2024-02-23T18:40:59.069Z,1.80
2024-02-23T18:43:26.162Z,1.83
2024-02-23T18:45:52.752Z,2.78
2024-02-23T18:48:21.172Z,1.95
2024-02-23T18:53:20.693Z,2.15
2024-02-23T18:55:47.340Z,2.17
2024-02-23T18:58:14.124Z,2.53
2024-02-23T19:00:43.068Z,2.42
2024-02-23T19:03:09.708Z,3.50
2024-02-23T19:05:38.425Z,2.67
2024-02-23T19:08:07.910Z,1.60
2024-02-23T19:10:37.187Z,2.13
2024-02-23T19:13:03.854Z,2.13
2024-02-23T19:15:31.314Z,2.58
2024-02-23T19:17:57.942Z,2.05
2024-02-23T19:20:24.800Z,2.50
2024-02-23T19:22:58.092Z,2.75
2024-02-23T19:25:24.529Z,2.75
2024-02-23T19:27:50.996Z,3.60
2024-02-23T19:30:17.798Z,4.47
2024-02-23T19:32:44.573Z,4.60
2024-02-23T19:35:11.397Z,3.67
2024-02-23T19:37:38.687Z,3.05
2024-02-23T19:40:06.129Z,6.05
2024-02-23T19:42:34.324Z,6.28
2024-02-23T19:45:03.703Z,4.07
2024-02-23T19:47:33.412Z,3.53
2024-02-23T19:50:00.606Z,2.95
2024-02-23T19:52:30.307Z,4.30
2024-02-23T19:54:59.929Z,3.47
2024-02-23T19:57:27.992Z,3.63
2024-02-23T19:59:54.787Z,3.08
2024-02-23T20:02:21.459Z,2.85
2024-02-23T20:04:53.571Z,3.45
2024-02-23T20:07:22.511Z,3.10
2024-02-23T20:09:49.857Z,3.08
2024-02-23T20:12:20.289Z,3.35
2024-02-23T20:14:47.791Z,3.80
2024-02-23T20:17:15.960Z,2.95
2024-02-23T20:19:44.282Z,3.17
2024-02-23T20:22:14.889Z,4.28
2024-02-23T20:24:43.153Z,5.57
2024-02-23T20:29:41.158Z,3.63
2024-02-23T20:32:16.143Z,3.97
2024-02-23T20:34:56.641Z,2.60
2024-02-23T20:37:25.529Z,3.17
2024-02-23T20:39:52.003Z,2.70
2024-02-23T20:42:18.463Z,10.70
2024-02-23T20:44:48.795Z,4.00
2024-02-23T20:47:19.801Z,3.15
2024-02-23T20:49:49.766Z,2.88
2024-02-23T20:52:18.315Z,5.05
2024-02-23T20:57:26.055Z,3.85
2024-02-23T20:59:52.649Z,3.50
2024-02-23T21:02:25.168Z,4.15
2024-02-23T21:04:51.957Z,3.30
2024-02-23T21:07:19.650Z,3.20
2024-02-23T21:09:47.358Z,3.15
2024-02-23T21:12:14.969Z,3.88
2024-02-23T21:14:43.810Z,3.53
2024-02-23T21:17:10.474Z,3.70
2024-02-23T21:19:37.173Z,4.35
2024-02-23T21:22:04.061Z,4.25
2024-02-23T21:24:31.278Z,4.25
2024-02-23T21:26:58.417Z,5.25
2024-02-23T21:29:25.112Z,4.28
2024-02-23T21:31:51.733Z,4.25
2024-02-23T21:34:18.345Z,3.70
2024-02-23T21:36:44.907Z,5.05
2024-02-23T21:39:11.425Z,4.97
2024-02-23T21:41:38.010Z,4.10
2024-02-23T21:44:06.803Z,4.13
2024-02-23T21:46:33.474Z,4.07
2024-02-23T21:49:03.298Z,3.40
2024-02-23T21:51:30.417Z,3.58
2024-02-23T21:53:57.339Z,4.50
2024-02-23T21:56:24.666Z,2.92
2024-02-23T21:58:51.392Z,3.78
2024-02-23T22:01:21.669Z,3.28
2024-02-23T22:03:53.351Z,3.03
2024-02-23T22:06:22.394Z,3.53
2024-02-23T22:08:49.320Z,3.45
2024-02-23T22:11:16.438Z,4.25
2024-02-23T22:13:43.212Z,3.53
2024-02-23T22:16:09.912Z,3.67
2024-02-23T22:18:36.559Z,2.78
2024-02-23T22:21:06.026Z,2.03
2024-02-23T22:23:32.541Z,2.95
2024-02-23T22:26:00.138Z,2.40
2024-02-23T22:28:26.720Z,2.97
2024-02-23T22:30:53.164Z,2.90
2024-02-23T22:33:20.098Z,2.90
2024-02-23T22:35:46.791Z,2.30
2024-02-23T22:38:13.466Z,2.35
2024-02-23T22:40:40.034Z,2.00
2024-02-23T22:43:06.544Z,2.45
2024-02-23T22:45:33.231Z,2.08
2024-02-23T22:48:00.447Z,2.33
2024-02-23T22:50:27.407Z,2.00
2024-02-23T22:52:54.114Z,1.90
2024-02-23T22:55:20.873Z,2.40
2024-02-23T22:57:47.547Z,2.25
2024-02-23T23:00:14.669Z,2.35
2024-02-23T23:02:41.608Z,2.20
2024-02-23T23:05:08.539Z,2.40
2024-02-23T23:07:37.250Z,2.00
2024-02-23T23:10:04.714Z,2.17
2024-02-23T23:12:32.554Z,2.15
2024-02-23T23:14:59.217Z,2.20
2024-02-23T23:17:25.881Z,2.10
2024-02-23T23:19:52.688Z,1.77
2024-02-23T23:22:19.278Z,4.00
2024-02-23T23:24:45.869Z,3.15
2024-02-23T23:27:12.401Z,2.00
2024-02-23T23:29:39.142Z,2.03
2024-02-23T23:32:06.016Z,2.13
2024-02-23T23:34:32.604Z,2.38
2024-02-23T23:36:59.137Z,6.75
2024-02-23T23:39:25.676Z,2.28
2024-02-23T23:41:52.817Z,2.08
2024-02-23T23:44:19.420Z,1.90
2024-02-23T23:46:45.950Z,2.25
2024-02-23T23:49:12.718Z,2.50
2024-02-23T23:51:49.723Z,1.50
2024-02-23T23:54:23.490Z,2.13
2024-02-23T23:56:50.263Z,1.80
2024-02-23T23:59:17.001Z,1.92
